Legend :    VFR   Marginal VFR   IFR   Intensive IFR   Very Intensive IFR
Visi :
Ceiling :
>= 8 km
>= 3000ft
5 to 8 km
1000 to 3000 ft
1500m to 5 km
500 to 1000 ft
800 to 1500m
200 to 500 ft
< 800m
< 200 ft
Symbols :   Thunderstorms  Fog  Heavy snow  Heavy precipitations  Wind > 20 kt
SIGMETs :     Misc.  Thunderstorms  Icing  Turbulence  Mountain Waves  Volcanic Ashes







- Airport Elevation : 876 ft
- IATA code : MBX


LJMB - Maribor

CURRENT METAR :
  • 171330Z 15006KT CAVOK 15/M00 Q1026

EXPIRED METARs :
  • 171300Z 15004KT 110V170 CAVOK 14/M00 Q1026
  • 171230Z VRB02KT CAVOK 14/M01 Q1026
  • 171200Z VRB02KT CAVOK 14/M01 Q1027
  • 171130Z VRB02KT CAVOK 13/01 Q1027
  • 171100Z VRB02KT CAVOK 11/M01 Q1028

TAF TAF LJMB
Valid from the 17 at 12:00 until the 18 at 12:00 UTC


171100Z 1712/1812 VRB02KT CAVOK
TEMPO 1712/1716 15005KT
BECMG 1810/1811 18005KT
No reported NOTAMs for that airfield.


LOGIN :  

Disclaimer |     EN      FR      IT 



MET'MAP, your aeronautical weather chart ! - Copyright ORBIFLY December 2007 - Disclaimer


ORBIFLY MET'MAP TEAM :

Programming & Development : Alexandra Zaïnal
Concept & Development : Baudouin d'Aumeries
Co-Development & Prog : Marc-Olivier Méhu
Technical & hardware support : Manuel Goepfert

Contact : metmap@orbifly.com




SOURCES & CREDITS :

   NOAA